sensor_id;sensor_type;location;lat;lon;timestamp;P1;durP1;ratioP1;P2;durP2;ratioP2
56519;SDS011;42420;53.586;10.052;2023-04-03T00:00:26;7.15;;;1.83;;
56519;SDS011;42420;53.586;10.052;2023-04-03T00:05:30;7.60;;;2.15;;
56519;SDS011;42420;53.586;10.052;2023-04-03T00:10:29;6.43;;;1.63;;
56519;SDS011;42420;53.586;10.052;2023-04-03T00:15:38;9.95;;;2.05;;
56519;SDS011;42420;53.586;10.052;2023-04-03T00:20:41;9.50;;;2.20;;
56519;SDS011;42420;53.586;10.052;2023-04-03T00:25:42;8.45;;;1.90;;
56519;SDS011;42420;53.586;10.052;2023-04-03T00:30:39;5.55;;;1.95;;
56519;SDS011;42420;53.586;10.052;2023-04-03T00:35:38;6.53;;;2.05;;
56519;SDS011;42420;53.586;10.052;2023-04-03T00:45:36;7.35;;;1.77;;
56519;SDS011;42420;53.586;10.052;2023-04-03T00:50:40;6.65;;;1.88;;
56519;SDS011;42420;53.586;10.052;2023-04-03T00:55:43;11.18;;;1.98;;
56519;SDS011;42420;53.586;10.052;2023-04-03T01:00:44;10.00;;;2.25;;
56519;SDS011;42420;53.586;10.052;2023-04-03T01:05:49;9.73;;;2.55;;
56519;SDS011;42420;53.586;10.052;2023-04-03T01:11:03;7.38;;;1.80;;
56519;SDS011;42420;53.586;10.052;2023-04-03T01:16:01;6.97;;;2.05;;
56519;SDS011;42420;53.586;10.052;2023-04-03T01:27:01;8.25;;;2.28;;
56519;SDS011;42420;53.586;10.052;2023-04-03T01:31:59;7.45;;;1.95;;
56519;SDS011;42420;53.586;10.052;2023-04-03T01:36:58;8.50;;;2.25;;
56519;SDS011;42420;53.586;10.052;2023-04-03T01:41:56;9.40;;;2.20;;
56519;SDS011;42420;53.586;10.052;2023-04-03T01:46:55;7.00;;;1.95;;
56519;SDS011;42420;53.586;10.052;2023-04-03T01:51:52;8.43;;;2.10;;
56519;SDS011;42420;53.586;10.052;2023-04-03T01:56:52;8.60;;;2.50;;
56519;SDS011;42420;53.586;10.052;2023-04-03T02:01:49;7.43;;;2.35;;
56519;SDS011;42420;53.586;10.052;2023-04-03T02:06:54;7.70;;;2.25;;
56519;SDS011;42420;53.586;10.052;2023-04-03T02:12:09;13.02;;;3.58;;
56519;SDS011;42420;53.586;10.052;2023-04-03T02:17:29;8.65;;;2.15;;
56519;SDS011;42420;53.586;10.052;2023-04-03T02:27:24;8.57;;;2.42;;
56519;SDS011;42420;53.586;10.052;2023-04-03T02:32:34;10.10;;;2.08;;
56519;SDS011;42420;53.586;10.052;2023-04-03T02:37:31;8.77;;;2.63;;
56519;SDS011;42420;53.586;10.052;2023-04-03T02:42:28;5.13;;;1.63;;
56519;SDS011;42420;53.586;10.052;2023-04-03T02:47:33;13.07;;;2.58;;
56519;SDS011;42420;53.586;10.052;2023-04-03T02:52:32;8.95;;;2.60;;
56519;SDS011;42420;53.586;10.052;2023-04-03T02:57:47;7.38;;;2.15;;
56519;SDS011;42420;53.586;10.052;2023-04-03T03:02:45;6.82;;;2.05;;
56519;SDS011;42420;53.586;10.052;2023-04-03T03:07:42;9.38;;;1.98;;
56519;SDS011;42420;53.586;10.052;2023-04-03T03:12:39;7.22;;;1.52;;
56519;SDS011;42420;53.586;10.052;2023-04-03T03:17:36;12.35;;;2.30;;
56519;SDS011;42420;53.586;10.052;2023-04-03T03:22:33;7.65;;;1.83;;
56519;SDS011;42420;53.586;10.052;2023-04-03T03:27:32;7.95;;;2.03;;
56519;SDS011;42420;53.586;10.052;2023-04-03T03:32:29;6.80;;;2.08;;
56519;SDS011;42420;53.586;10.052;2023-04-03T03:48:57;10.52;;;2.30;;
56519;SDS011;42420;53.586;10.052;2023-04-03T03:59:33;9.50;;;2.03;;
56519;SDS011;42420;53.586;10.052;2023-04-03T04:05:07;7.95;;;1.92;;
56519;SDS011;42420;53.586;10.052;2023-04-03T04:10:04;8.95;;;1.88;;
56519;SDS011;42420;53.586;10.052;2023-04-03T04:15:06;9.07;;;2.10;;
56519;SDS011;42420;53.586;10.052;2023-04-03T04:20:18;9.43;;;2.25;;
56519;SDS011;42420;53.586;10.052;2023-04-03T04:25:20;7.65;;;2.30;;
56519;SDS011;42420;53.586;10.052;2023-04-03T04:30:16;8.25;;;1.60;;
56519;SDS011;42420;53.586;10.052;2023-04-03T04:40:49;7.65;;;1.90;;
56519;SDS011;42420;53.586;10.052;2023-04-03T04:46:21;9.57;;;2.28;;
56519;SDS011;42420;53.586;10.052;2023-04-03T04:51:36;8.00;;;2.30;;
56519;SDS011;42420;53.586;10.052;2023-04-03T04:56:47;9.55;;;1.90;;
56519;SDS011;42420;53.586;10.052;2023-04-03T05:01:46;5.90;;;1.90;;
56519;SDS011;42420;53.586;10.052;2023-04-03T05:06:52;9.32;;;2.65;;
56519;SDS011;42420;53.586;10.052;2023-04-03T05:11:53;6.80;;;1.88;;
56519;SDS011;42420;53.586;10.052;2023-04-03T05:16:52;6.38;;;2.20;;
56519;SDS011;42420;53.586;10.052;2023-04-03T05:21:50;7.22;;;1.60;;
56519;SDS011;42420;53.586;10.052;2023-04-03T05:26:52;10.18;;;1.90;;
56519;SDS011;42420;53.586;10.052;2023-04-03T05:31:49;6.60;;;2.35;;
56519;SDS011;42420;53.586;10.052;2023-04-03T05:36:51;9.73;;;2.47;;
56519;SDS011;42420;53.586;10.052;2023-04-03T05:41:51;9.10;;;2.40;;
56519;SDS011;42420;53.586;10.052;2023-04-03T05:46:47;6.90;;;1.80;;
56519;SDS011;42420;53.586;10.052;2023-04-03T05:51:44;10.20;;;3.47;;
56519;SDS011;42420;53.586;10.052;2023-04-03T05:56:41;10.68;;;2.40;;
56519;SDS011;42420;53.586;10.052;2023-04-03T06:01:37;11.90;;;3.65;;
56519;SDS011;42420;53.586;10.052;2023-04-03T06:06:50;16.20;;;3.92;;
56519;SDS011;42420;53.586;10.052;2023-04-03T06:11:48;11.70;;;3.38;;
56519;SDS011;42420;53.586;10.052;2023-04-03T06:16:45;6.43;;;2.72;;
56519;SDS011;42420;53.586;10.052;2023-04-03T06:21:42;11.20;;;2.78;;
56519;SDS011;42420;53.586;10.052;2023-04-03T06:26:38;10.18;;;2.97;;
56519;SDS011;42420;53.586;10.052;2023-04-03T06:31:35;7.68;;;2.25;;
56519;SDS011;42420;53.586;10.052;2023-04-03T06:36:32;11.45;;;3.25;;
56519;SDS011;42420;53.586;10.052;2023-04-03T06:41:29;9.45;;;2.42;;
56519;SDS011;42420;53.586;10.052;2023-04-03T06:46:27;6.97;;;2.42;;
56519;SDS011;42420;53.586;10.052;2023-04-03T06:51:27;7.43;;;2.25;;
56519;SDS011;42420;53.586;10.052;2023-04-03T06:56:24;10.43;;;2.70;;
56519;SDS011;42420;53.586;10.052;2023-04-03T07:01:22;6.10;;;1.60;;
56519;SDS011;42420;53.586;10.052;2023-04-03T07:06:20;7.15;;;1.50;;
56519;SDS011;42420;53.586;10.052;2023-04-03T07:11:20;8.30;;;1.60;;
56519;SDS011;42420;53.586;10.052;2023-04-03T07:16:24;5.15;;;1.30;;
56519;SDS011;42420;53.586;10.052;2023-04-03T07:21:29;6.05;;;1.42;;
56519;SDS011;42420;53.586;10.052;2023-04-03T07:26:31;6.05;;;1.60;;
56519;SDS011;42420;53.586;10.052;2023-04-03T07:31:30;5.07;;;1.17;;
56519;SDS011;42420;53.586;10.052;2023-04-03T07:36:29;5.15;;;1.25;;
56519;SDS011;42420;53.586;10.052;2023-04-03T07:46:29;9.43;;;1.35;;
56519;SDS011;42420;53.586;10.052;2023-04-03T07:51:38;5.38;;;1.33;;
56519;SDS011;42420;53.586;10.052;2023-04-03T07:56:56;7.90;;;1.35;;
56519;SDS011;42420;53.586;10.052;2023-04-03T08:01:59;5.70;;;1.00;;
56519;SDS011;42420;53.586;10.052;2023-04-03T08:07:10;3.72;;;0.95;;
56519;SDS011;42420;53.586;10.052;2023-04-03T08:12:14;4.07;;;1.08;;
56519;SDS011;42420;53.586;10.052;2023-04-03T08:17:16;5.35;;;1.05;;
56519;SDS011;42420;53.586;10.052;2023-04-03T08:22:20;5.55;;;1.33;;
56519;SDS011;42420;53.586;10.052;2023-04-03T08:27:20;7.72;;;1.40;;
56519;SDS011;42420;53.586;10.052;2023-04-03T08:32:25;6.28;;;1.30;;
56519;SDS011;42420;53.586;10.052;2023-04-03T08:37:21;5.13;;;1.00;;
56519;SDS011;42420;53.586;10.052;2023-04-03T08:52:58;5.43;;;0.93;;
56519;SDS011;42420;53.586;10.052;2023-04-03T08:58:02;4.00;;;0.88;;
56519;SDS011;42420;53.586;10.052;2023-04-03T09:03:01;4.88;;;0.90;;
56519;SDS011;42420;53.586;10.052;2023-04-03T09:08:02;5.55;;;1.02;;
56519;SDS011;42420;53.586;10.052;2023-04-03T09:13:06;3.38;;;0.90;;
56519;SDS011;42420;53.586;10.052;2023-04-03T09:23:15;4.15;;;0.82;;
56519;SDS011;42420;53.586;10.052;2023-04-03T09:28:19;4.65;;;0.90;;
56519;SDS011;42420;53.586;10.052;2023-04-03T09:33:18;3.72;;;0.70;;
56519;SDS011;42420;53.586;10.052;2023-04-03T09:38:20;6.10;;;1.05;;
56519;SDS011;42420;53.586;10.052;2023-04-03T09:43:26;3.88;;;0.80;;
56519;SDS011;42420;53.586;10.052;2023-04-03T09:48:35;4.80;;;0.95;;
56519;SDS011;42420;53.586;10.052;2023-04-03T09:53:38;3.17;;;0.80;;
56519;SDS011;42420;53.586;10.052;2023-04-03T09:58:38;3.90;;;0.95;;
56519;SDS011;42420;53.586;10.052;2023-04-03T10:03:49;4.05;;;0.80;;
56519;SDS011;42420;53.586;10.052;2023-04-03T10:09:05;3.10;;;0.70;;
56519;SDS011;42420;53.586;10.052;2023-04-03T10:14:29;5.18;;;1.13;;
56519;SDS011;42420;53.586;10.052;2023-04-03T10:19:38;3.08;;;0.70;;
56519;SDS011;42420;53.586;10.052;2023-04-03T10:24:56;3.20;;;0.80;;
56519;SDS011;42420;53.586;10.052;2023-04-03T10:41:01;3.13;;;1.00;;
56519;SDS011;42420;53.586;10.052;2023-04-03T10:46:05;3.10;;;0.65;;
56519;SDS011;42420;53.586;10.052;2023-04-03T10:56:44;5.07;;;1.05;;
56519;SDS011;42420;53.586;10.052;2023-04-03T11:01:57;3.90;;;0.68;;
56519;SDS011;42420;53.586;10.052;2023-04-03T11:07:00;4.53;;;0.90;;
56519;SDS011;42420;53.586;10.052;2023-04-03T11:12:04;4.30;;;0.82;;
56519;SDS011;42420;53.586;10.052;2023-04-03T11:17:10;5.13;;;0.98;;
56519;SDS011;42420;53.586;10.052;2023-04-03T11:27:15;4.72;;;1.02;;
56519;SDS011;42420;53.586;10.052;2023-04-03T11:32:27;6.03;;;1.42;;
56519;SDS011;42420;53.586;10.052;2023-04-03T11:42:36;7.63;;;1.10;;
56519;SDS011;42420;53.586;10.052;2023-04-03T11:47:47;7.40;;;1.75;;
56519;SDS011;42420;53.586;10.052;2023-04-03T11:57:49;5.28;;;0.90;;
56519;SDS011;42420;53.586;10.052;2023-04-03T12:02:59;7.05;;;1.08;;
56519;SDS011;42420;53.586;10.052;2023-04-03T12:08:15;4.03;;;0.98;;
56519;SDS011;42420;53.586;10.052;2023-04-03T12:13:18;3.95;;;1.02;;
56519;SDS011;42420;53.586;10.052;2023-04-03T12:23:37;4.20;;;0.90;;
56519;SDS011;42420;53.586;10.052;2023-04-03T12:45:42;2.65;;;0.82;;
56519;SDS011;42420;53.586;10.052;2023-04-03T12:50:17;2.92;;;0.70;;
56519;SDS011;42420;53.586;10.052;2023-04-03T12:55:18;6.90;;;1.10;;
56519;SDS011;42420;53.586;10.052;2023-04-03T13:00:20;2.58;;;0.60;;
56519;SDS011;42420;53.586;10.052;2023-04-03T13:05:29;3.90;;;0.90;;
56519;SDS011;42420;53.586;10.052;2023-04-03T13:10:26;2.58;;;0.75;;
56519;SDS011;42420;53.586;10.052;2023-04-03T13:15:24;3.90;;;1.10;;
56519;SDS011;42420;53.586;10.052;2023-04-03T13:20:30;3.55;;;0.93;;
56519;SDS011;42420;53.586;10.052;2023-04-03T13:25:29;5.15;;;0.85;;
56519;SDS011;42420;53.586;10.052;2023-04-03T13:30:29;3.72;;;0.80;;
56519;SDS011;42420;53.586;10.052;2023-04-03T13:35:34;3.40;;;0.88;;
56519;SDS011;42420;53.586;10.052;2023-04-03T13:40:46;4.05;;;1.00;;
56519;SDS011;42420;53.586;10.052;2023-04-03T13:51:02;5.15;;;0.90;;
56519;SDS011;42420;53.586;10.052;2023-04-03T14:01:19;3.28;;;0.90;;
56519;SDS011;42420;53.586;10.052;2023-04-03T14:06:18;3.60;;;0.80;;
56519;SDS011;42420;53.586;10.052;2023-04-03T14:11:19;4.43;;;1.10;;
56519;SDS011;42420;53.586;10.052;2023-04-03T14:16:21;3.65;;;1.02;;
56519;SDS011;42420;53.586;10.052;2023-04-03T14:21:20;3.17;;;0.80;;
56519;SDS011;42420;53.586;10.052;2023-04-03T14:26:21;3.63;;;0.80;;
56519;SDS011;42420;53.586;10.052;2023-04-03T14:31:19;4.63;;;0.90;;
56519;SDS011;42420;53.586;10.052;2023-04-03T14:36:21;4.25;;;0.90;;
56519;SDS011;42420;53.586;10.052;2023-04-03T14:41:21;4.15;;;0.90;;
56519;SDS011;42420;53.586;10.052;2023-04-03T14:46:21;3.97;;;0.90;;
56519;SDS011;42420;53.586;10.052;2023-04-03T14:51:38;3.67;;;0.80;;
56519;SDS011;42420;53.586;10.052;2023-04-03T14:56:35;3.20;;;0.73;;
56519;SDS011;42420;53.586;10.052;2023-04-03T15:01:31;5.07;;;1.23;;
56519;SDS011;42420;53.586;10.052;2023-04-03T15:06:28;6.10;;;1.10;;
56519;SDS011;42420;53.586;10.052;2023-04-03T15:11:24;5.97;;;1.33;;
56519;SDS011;42420;53.586;10.052;2023-04-03T15:16:37;5.25;;;0.90;;
56519;SDS011;42420;53.586;10.052;2023-04-03T15:21:41;3.35;;;0.80;;
56519;SDS011;42420;53.586;10.052;2023-04-03T15:26:37;4.88;;;1.00;;
56519;SDS011;42420;53.586;10.052;2023-04-03T15:31:34;4.22;;;0.80;;
56519;SDS011;42420;53.586;10.052;2023-04-03T15:36:30;3.50;;;1.08;;
56519;SDS011;42420;53.586;10.052;2023-04-03T15:41:30;5.55;;;1.08;;
56519;SDS011;42420;53.586;10.052;2023-04-03T16:21:00;7.85;;;1.30;;
56519;SDS011;42420;53.586;10.052;2023-04-03T16:25:57;5.72;;;1.10;;
56519;SDS011;42420;53.586;10.052;2023-04-03T16:30:53;2.65;;;0.80;;
56519;SDS011;42420;53.586;10.052;2023-04-03T16:35:50;6.72;;;1.35;;
56519;SDS011;42420;53.586;10.052;2023-04-03T16:40:48;3.47;;;1.02;;
56519;SDS011;42420;53.586;10.052;2023-04-03T16:45:45;7.03;;;0.93;;
56519;SDS011;42420;53.586;10.052;2023-04-03T16:50:41;7.05;;;1.30;;
56519;SDS011;42420;53.586;10.052;2023-04-03T16:55:38;3.72;;;1.10;;
56519;SDS011;42420;53.586;10.052;2023-04-03T17:13:01;7.28;;;2.05;;
56519;SDS011;42420;53.586;10.052;2023-04-03T17:30:56;4.18;;;1.17;;
56519;SDS011;42420;53.586;10.052;2023-04-03T17:43:41;3.70;;;1.15;;
56519;SDS011;42420;53.586;10.052;2023-04-03T17:49:59;5.82;;;1.30;;
56519;SDS011;42420;53.586;10.052;2023-04-03T17:55:17;5.07;;;1.20;;
56519;SDS011;42420;53.586;10.052;2023-04-03T20:24:52;6.53;;;1.58;;
56519;SDS011;42420;53.586;10.052;2023-04-03T20:29:49;8.05;;;2.03;;
56519;SDS011;42420;53.586;10.052;2023-04-03T20:39:58;6.57;;;1.98;;
56519;SDS011;42420;53.586;10.052;2023-04-03T20:44:55;6.82;;;2.00;;
56519;SDS011;42420;53.586;10.052;2023-04-03T20:54:49;8.05;;;1.85;;
56519;SDS011;42420;53.586;10.052;2023-04-03T20:59:50;7.40;;;2.50;;
56519;SDS011;42420;53.586;10.052;2023-04-03T21:04:52;13.60;;;2.42;;
56519;SDS011;42420;53.586;10.052;2023-04-03T21:20:44;7.22;;;2.25;;
56519;SDS011;42420;53.586;10.052;2023-04-03T21:25:43;7.40;;;2.03;;
56519;SDS011;42420;53.586;10.052;2023-04-03T21:30:40;6.35;;;1.70;;
56519;SDS011;42420;53.586;10.052;2023-04-03T21:35:37;7.30;;;2.35;;
56519;SDS011;42420;53.586;10.052;2023-04-03T21:40:34;8.45;;;2.08;;
56519;SDS011;42420;53.586;10.052;2023-04-03T21:45:32;7.10;;;2.22;;
56519;SDS011;42420;53.586;10.052;2023-04-03T21:50:36;5.93;;;1.83;;
56519;SDS011;42420;53.586;10.052;2023-04-03T21:55:35;5.97;;;1.80;;
56519;SDS011;42420;53.586;10.052;2023-04-03T22:00:33;5.43;;;1.67;;
56519;SDS011;42420;53.586;10.052;2023-04-03T22:05:30;5.03;;;1.95;;
56519;SDS011;42420;53.586;10.052;2023-04-03T22:10:27;3.65;;;1.25;;
56519;SDS011;42420;53.586;10.052;2023-04-03T22:15:24;7.88;;;2.13;;
56519;SDS011;42420;53.586;10.052;2023-04-03T22:20:27;7.38;;;2.25;;
56519;SDS011;42420;53.586;10.052;2023-04-03T22:25:24;8.07;;;1.92;;
56519;SDS011;42420;53.586;10.052;2023-04-03T22:30:21;9.25;;;2.08;;
56519;SDS011;42420;53.586;10.052;2023-04-03T22:35:20;7.90;;;1.85;;
56519;SDS011;42420;53.586;10.052;2023-04-03T22:40:24;6.88;;;2.10;;
56519;SDS011;42420;53.586;10.052;2023-04-03T22:45:21;6.63;;;1.75;;
56519;SDS011;42420;53.586;10.052;2023-04-03T22:50:18;5.95;;;1.98;;
56519;SDS011;42420;53.586;10.052;2023-04-03T22:55:15;7.43;;;1.73;;
56519;SDS011;42420;53.586;10.052;2023-04-03T23:00:15;6.57;;;1.90;;
56519;SDS011;42420;53.586;10.052;2023-04-03T23:10:08;5.22;;;2.00;;
56519;SDS011;42420;53.586;10.052;2023-04-03T23:15:07;5.65;;;1.90;;
56519;SDS011;42420;53.586;10.052;2023-04-03T23:20:07;9.00;;;2.40;;
56519;SDS011;42420;53.586;10.052;2023-04-03T23:25:10;9.95;;;2.08;;
56519;SDS011;42420;53.586;10.052;2023-04-03T23:30:07;7.45;;;2.03;;
56519;SDS011;42420;53.586;10.052;2023-04-03T23:35:04;5.30;;;1.60;;
56519;SDS011;42420;53.586;10.052;2023-04-03T23:44:58;8.63;;;2.70;;
56519;SDS011;42420;53.586;10.052;2023-04-03T23:49:58;4.75;;;1.77;;
56519;SDS011;42420;53.586;10.052;2023-04-03T23:54:55;5.53;;;1.60;;
56519;SDS011;42420;53.586;10.052;2023-04-03T23:59:54;6.60;;;2.00;;
